createdAt,value
2019-06-10T00:00:51.128Z,24.29
2019-06-10T00:15:51.573Z,24.47
2019-06-10T00:30:51.623Z,24.45
2019-06-10T00:45:53.398Z,24.23
2019-06-10T01:00:51.850Z,24.24
2019-06-10T01:15:51.233Z,24.14
2019-06-10T01:30:51.679Z,24.07
2019-06-10T01:45:53.756Z,24.04
2019-06-10T02:00:55.091Z,24.05
2019-06-10T02:15:51.467Z,24.06
2019-06-10T02:30:55.449Z,24.02
2019-06-10T02:45:53.051Z,23.96
2019-06-10T03:00:54.305Z,23.91
2019-06-10T03:30:55.290Z,24.40
2019-06-10T03:45:53.138Z,24.38
2019-06-10T04:00:52.247Z,24.04
2019-06-10T04:15:53.303Z,24.30
2019-06-10T04:30:53.087Z,25.17
2019-06-10T04:45:52.773Z,25.89
2019-06-10T05:00:52.381Z,26.44
2019-06-10T05:15:52.679Z,26.72
2019-06-10T05:30:53.179Z,27.56
2019-06-10T05:45:53.000Z,28.25
2019-06-10T06:00:53.271Z,28.71
2019-06-10T06:15:52.743Z,29.28
2019-06-10T06:30:52.692Z,29.86
2019-06-10T06:45:52.988Z,29.56
2019-06-10T07:01:03.712Z,28.57
2019-06-10T07:15:53.332Z,28.55
2019-06-10T07:30:54.980Z,27.76
2019-06-10T07:45:53.420Z,26.65
2019-06-10T08:00:53.141Z,26.32
2019-06-10T08:15:53.219Z,27.49
2019-06-10T08:30:53.197Z,27.47
2019-06-10T08:45:53.010Z,29.10
2019-06-10T09:00:53.508Z,30.13
2019-06-10T09:16:09.208Z,29.81
2019-06-10T09:30:59.672Z,28.70
2019-06-10T09:45:55.409Z,28.16
2019-06-10T10:00:57.764Z,27.23
2019-06-10T10:15:53.872Z,26.82
2019-06-10T10:30:52.709Z,24.24
2019-06-10T10:45:54.515Z,25.10
2019-06-10T11:00:54.490Z,25.86
2019-06-10T11:15:54.921Z,26.46
2019-06-10T11:30:55.430Z,26.12
2019-06-10T11:45:56.879Z,26.61
2019-06-10T12:00:55.859Z,26.15
2019-06-10T12:16:48.147Z,25.57
2019-06-10T12:17:17.482Z,25.52
2019-06-10T12:31:01.079Z,24.30
2019-06-10T12:45:52.968Z,24.46
2019-06-10T13:00:53.161Z,24.82
2019-06-10T13:15:53.274Z,25.11
2019-06-10T13:30:54.021Z,25.93
2019-06-10T13:45:52.963Z,25.32
2019-06-10T14:00:53.666Z,24.34
2019-06-10T14:15:53.371Z,23.15
2019-06-10T14:30:53.905Z,22.52
2019-06-10T14:45:53.468Z,22.45
2019-06-10T15:00:54.168Z,22.52
2019-06-10T15:15:53.431Z,22.66
2019-06-10T15:30:52.412Z,22.89
2019-06-10T15:45:52.563Z,23.44
2019-06-10T16:00:53.493Z,23.45
2019-06-10T16:30:54.110Z,23.54
2019-06-10T16:45:57.005Z,23.60
2019-06-10T17:00:50.604Z,24.50
2019-06-10T17:15:51.069Z,24.20
2019-06-10T17:30:52.992Z,23.53
2019-06-10T17:45:54.082Z,23.16
2019-06-10T18:00:53.038Z,23.11
2019-06-10T18:15:53.404Z,24.14
2019-06-10T18:30:53.243Z,23.86
2019-06-10T18:45:52.981Z,23.00
2019-06-10T19:01:05.276Z,22.46
2019-06-10T19:30:53.569Z,21.68
2019-06-10T19:45:52.898Z,22.39
2019-06-10T20:00:54.077Z,22.86
2019-06-10T20:15:52.493Z,22.46
2019-06-10T20:30:54.089Z,22.78
2019-06-10T20:45:51.118Z,22.74
2019-06-10T21:00:53.888Z,23.33
2019-06-10T21:15:55.095Z,23.56
2019-06-10T21:30:58.098Z,23.80
2019-06-10T21:45:56.177Z,23.96
2019-06-10T22:01:03.434Z,24.21
2019-06-10T22:15:57.156Z,24.23
2019-06-10T22:30:55.648Z,24.16
2019-06-10T22:45:55.934Z,24.18
2019-06-10T23:00:53.217Z,24.17
2019-06-10T23:15:53.471Z,24.09
2019-06-10T23:30:53.588Z,24.05
